Time;durP1;ratioP1;P1;durP2;ratioP2;P2;SDS_P1;SDS_P2;PMS_P1;PMS_P2;Temp;Humidity;BMP_temperature;BMP_pressure;BME280_temperature;BME280_humidity;BME280_pressure;Samples;Min_cycle;Max_cycle;Signal;HPM_P1;HPM_P2
2022/06/22 00:01:15;;;;;;;3.45;2.50;;;20.30;37.50;;;;;;5072454;28;20211;-47
2022/06/22 00:03:42;;;;;;;3.60;2.78;;;20.20;37.50;;;;;;5076003;28;20176;-47
2022/06/22 00:06:43;;;;;;;3.55;2.65;;;20.20;37.30;;;;;;5075595;28;20164;-46
2022/06/22 00:09:37;;;;;;;4.20;3.53;;;20.20;37.40;;;;;;5075786;28;20259;-46
2022/06/22 00:12:04;;;;;;;4.95;3.60;;;20.10;37.50;;;;;;5074212;28;20185;-46
2022/06/22 00:14:35;;;;;;;2.80;2.50;;;20.10;37.40;;;;;;5075644;28;20251;-46
2022/06/22 00:17:01;;;;;;;3.72;3.17;;;20.10;37.50;;;;;;5075678;28;20180;-47
2022/06/22 00:19:40;;;;;;;3.87;2.93;;;20.10;37.50;;;;;;5075659;28;20595;-46
2022/06/22 00:22:20;;;;;;;3.88;2.88;;;20.20;37.60;;;;;;5075854;28;20165;-45
2022/06/22 00:24:54;;;;;;;4.80;3.38;;;20.10;37.70;;;;;;5075454;28;20180;-46
2022/06/22 00:27:28;;;;;;;4.85;2.97;;;20.10;37.60;;;;;;5075297;28;20157;-47
2022/06/22 00:30:14;;;;;;;4.32;2.95;;;20.10;37.80;;;;;;5075418;28;20245;-46
2022/06/22 00:33:00;;;;;;;4.63;3.50;;;20.10;38.00;;;;;;5075344;28;20647;-47
2022/06/22 00:35:46;;;;;;;4.70;2.88;;;20.10;37.90;;;;;;5075219;28;20180;-46
2022/06/22 00:38:31;;;;;;;2.97;2.70;;;20.00;37.90;;;;;;5075162;28;20997;-47
2022/06/22 00:41:02;;;;;;;5.35;3.38;;;20.00;38.00;;;;;;5075392;28;20203;-46
2022/06/22 00:43:32;;;;;;;3.45;2.65;;;20.00;38.00;;;;;;5075512;28;20157;-46
2022/06/22 00:46:00;;;;;;;4.50;3.05;;;20.00;38.00;;;;;;5074918;28;20149;-47
2022/06/22 00:48:34;;;;;;;3.58;2.75;;;20.10;38.10;;;;;;5075084;28;20172;-46
2022/06/22 00:51:07;;;;;;;3.60;3.30;;;20.10;38.00;;;;;;5075180;28;20196;-47
2022/06/22 00:54:03;;;;;;;3.20;2.50;;;20.10;38.10;;;;;;5074960;28;20212;-46
2022/06/22 00:56:53;;;;;;;3.38;2.72;;;20.00;38.00;;;;;;5074771;28;20181;-47
2022/06/22 00:59:29;;;;;;;7.60;3.75;;;20.00;38.10;;;;;;5074965;28;20180;-47
2022/06/22 01:02:04;;;;;;;5.10;2.85;;;20.00;38.00;;;;;;5074768;28;20887;-46
2022/06/22 01:04:36;;;;;;;4.25;3.00;;;20.00;38.00;;;;;;5074716;28;20178;-46
2022/06/22 01:07:16;;;;;;;7.47;3.63;;;20.00;38.00;;;;;;5074505;28;20180;-46
2022/06/22 01:10:05;;;;;;;9.32;3.15;;;20.00;38.10;;;;;;5074829;28;20184;-46
2022/06/22 01:12:34;;;;;;;3.72;2.95;;;20.00;38.30;;;;;;5073945;28;20684;-45
2022/06/22 01:15:20;;;;;;;4.40;3.22;;;20.00;38.20;;;;;;5073958;28;20165;-46
2022/06/22 01:18:05;;;;;;;2.83;2.53;;;20.00;38.30;;;;;;5052815;28;20215;-46
2022/06/22 01:20:46;;;;;;;4.03;3.42;;;19.90;38.20;;;;;;5074377;28;20204;-46
2022/06/22 01:23:23;;;;;;;2.97;2.67;;;19.90;38.10;;;;;;5074306;28;20213;-46
2022/06/22 01:25:51;;;;;;;6.00;3.05;;;19.90;38.00;;;;;;5074237;28;20222;-46
2022/06/22 01:28:18;;;;;;;3.83;3.20;;;19.90;37.90;;;;;;5074350;28;20785;-46
2022/06/22 01:30:52;;;;;;;4.78;2.72;;;19.90;38.00;;;;;;5074229;28;20285;-47
2022/06/22 01:33:22;;;;;;;2.80;2.40;;;19.90;38.20;;;;;;5074276;28;20298;-46
2022/06/22 01:35:53;;;;;;;3.78;3.10;;;19.90;39.00;;;;;;5073902;28;20187;-46
2022/06/22 01:38:28;;;;;;;4.88;3.17;;;19.80;38.20;;;;;;5074302;28;20204;-46
2022/06/22 01:41:03;;;;;;;3.05;2.75;;;19.80;38.30;;;;;;5074068;28;20686;-46
2022/06/22 01:43:32;;;;;;;3.28;2.97;;;19.80;39.00;;;;;;5074052;28;20183;-47
2022/06/22 01:46:26;;;;;;;3.15;2.85;;;19.70;39.10;;;;;;5073828;28;20318;-46
2022/06/22 01:49:03;;;;;;;5.53;3.40;;;19.70;38.60;;;;;;5068239;28;20286;-46
2022/06/22 01:51:36;;;;;;;3.42;2.88;;;19.60;38.60;;;;;;5073999;28;20207;-46
2022/06/22 01:54:10;;;;;;;3.05;2.65;;;19.60;38.60;;;;;;5073819;28;20200;-45
2022/06/22 01:56:43;;;;;;;3.90;2.85;;;19.50;38.70;;;;;;5073528;28;20617;-46
2022/06/22 01:59:27;;;;;;;3.88;3.30;;;19.60;38.70;;;;;;5073674;28;20204;-46
2022/06/22 02:01:59;;;;;;;3.58;2.92;;;19.50;38.80;;;;;;5073975;28;20627;-46
2022/06/22 02:04:40;;;;;;;3.20;2.88;;;19.50;38.90;;;;;;5073590;28;20516;-46
2022/06/22 02:10:40;;;;;;;3.90;3.30;;;19.50;39.10;;;;;;5073941;28;20199;-45
2022/06/22 02:13:09;;;;;;;4.10;2.90;;;19.50;39.10;;;;;;5073507;28;20241;-45
2022/06/22 02:15:44;;;;;;;4.10;2.58;;;19.50;39.10;;;;;;5073495;28;20173;-46
2022/06/22 02:18:30;;;;;;;5.68;3.53;;;19.50;39.10;;;;;;5073516;28;20204;-44
2022/06/22 02:20:59;;;;;;;3.15;2.67;;;19.50;39.30;;;;;;5073282;28;20212;-45
2022/06/22 02:23:30;;;;;;;3.88;2.53;;;19.50;39.30;;;;;;5073577;28;20180;-45
2022/06/22 02:26:34;;;;;;;2.95;2.75;;;19.50;39.30;;;;;;5072986;28;20277;-45
2022/06/22 02:29:01;;;;;;;3.38;3.08;;;19.60;39.40;;;;;;5067346;28;20265;-45
2022/06/22 02:31:28;;;;;;;4.20;3.15;;;19.60;39.30;;;;;;5073023;28;20192;-45
2022/06/22 02:33:56;;;;;;;3.30;2.92;;;19.60;39.30;;;;;;5073047;28;20177;-45
2022/06/22 02:36:25;;;;;;;3.95;3.00;;;19.60;39.30;;;;;;5072835;28;20264;-45
2022/06/22 02:38:55;;;;;;;3.22;2.72;;;19.60;39.20;;;;;;5072863;28;20710;-46
2022/06/22 02:44:32;;;;;;;4.47;3.28;;;19.60;39.30;;;;;;5073168;28;20164;-45
2022/06/22 02:47:21;;;;;;;4.65;2.72;;;19.60;39.70;;;;;;5072872;28;20259;-45
2022/06/22 02:50:07;;;;;;;3.90;3.30;;;19.60;39.60;;;;;;5053294;28;20184;-45
2022/06/22 02:52:44;;;;;;;2.97;2.63;;;19.60;39.70;;;;;;5072942;28;20160;-45
2022/06/22 02:55:13;;;;;;;4.72;3.53;;;19.60;39.60;;;;;;5072917;28;20179;-45
2022/06/22 02:57:57;;;;;;;3.97;3.13;;;19.60;39.50;;;;;;5072503;28;20204;-45
2022/06/22 03:00:31;;;;;;;3.50;3.13;;;19.60;39.60;;;;;;5072458;28;20192;-45
2022/06/22 03:03:09;;;;;;;5.05;3.00;;;19.60;39.50;;;;;;5072552;28;20529;-46
2022/06/22 03:05:37;;;;;;;3.53;3.22;;;19.70;39.60;;;;;;5072350;28;20164;-44
2022/06/22 03:08:04;;;;;;;3.80;3.45;;;19.70;39.60;;;;;;5072353;28;20522;-45
2022/06/22 03:10:39;;;;;;;3.90;3.50;;;19.70;39.60;;;;;;5072507;28;20221;-45
2022/06/22 03:13:05;;;;;;;3.20;2.90;;;19.70;39.70;;;;;;5072459;28;20153;-45
2022/06/22 03:15:36;;;;;;;3.90;2.97;;;19.70;39.60;;;;;;5072395;28;20178;-45
2022/06/22 03:18:04;;;;;;;3.35;3.00;;;19.70;39.60;;;;;;5072208;28;21171;-45
2022/06/22 03:20:45;;;;;;;4.35;3.17;;;19.70;39.60;;;;;;5072207;28;20216;-45
2022/06/22 03:23:28;;;;;;;3.80;2.55;;;19.80;39.70;;;;;;5072387;28;20145;-45
2022/06/22 03:26:33;;;;;;;4.10;3.70;;;19.80;39.70;;;;;;5072041;28;20169;-45
2022/06/22 03:29:24;;;;;;;4.70;3.13;;;19.80;39.70;;;;;;5066101;28;20184;-45
2022/06/22 03:32:14;;;;;;;3.15;2.63;;;19.80;39.80;;;;;;5072282;28;20193;-46
2022/06/22 03:34:44;;;;;;;7.20;2.70;;;19.80;39.90;;;;;;5072027;28;20512;-45
2022/06/22 03:37:34;;;;;;;3.45;3.15;;;19.90;39.90;;;;;;5071110;28;20161;-45
2022/06/22 03:40:15;;;;;;;3.95;2.97;;;19.90;39.80;;;;;;5072303;28;20200;-45
2022/06/22 03:42:47;;;;;;;5.18;2.58;;;19.90;39.50;;;;;;5072065;28;20172;-46
2022/06/22 03:45:24;;;;;;;6.03;2.50;;;19.90;39.50;;;;;;5072273;28;20517;-45
2022/06/22 03:47:59;;;;;;;3.47;2.50;;;20.00;39.70;;;;;;5071856;28;20180;-45
2022/06/22 03:50:41;;;;;;;4.15;2.65;;;20.00;39.80;;;;;;5071859;28;20203;-45
2022/06/22 03:53:19;;;;;;;3.35;2.58;;;20.10;39.80;;;;;;5072204;28;20314;-46
2022/06/22 03:55:51;;;;;;;3.83;3.42;;;20.20;39.90;;;;;;5072026;28;20256;-45
2022/06/22 03:58:20;;;;;;;5.55;3.20;;;20.20;39.80;;;;;;5071873;28;20540;-45
2022/06/22 04:00:47;;;;;;;5.50;3.53;;;20.20;40.00;;;;;;5072061;28;20208;-45
2022/06/22 04:03:17;;;;;;;5.55;3.50;;;20.20;39.90;;;;;;5071863;28;20196;-45
2022/06/22 04:06:03;;;;;;;3.75;2.78;;;20.20;39.90;;;;;;5071518;28;20168;-45
2022/06/22 04:08:36;;;;;;;4.53;3.20;;;20.30;39.90;;;;;;5072082;28;20206;-45
2022/06/22 04:11:19;;;;;;;3.25;2.63;;;20.30;39.90;;;;;;5071738;28;20205;-45
2022/06/22 04:13:51;;;;;;;3.58;2.58;;;20.40;39.90;;;;;;5071772;28;20215;-45
2022/06/22 04:16:32;;;;;;;3.25;2.63;;;20.30;39.90;;;;;;5071468;28;20179;-45
2022/06/22 04:19:03;;;;;;;3.58;3.20;;;20.40;39.90;;;;;;5071885;28;20216;-45
2022/06/22 04:21:39;;;;;;;3.75;2.95;;;20.40;39.90;;;;;;5071570;28;20212;-45
2022/06/22 04:24:15;;;;;;;3.10;2.50;;;20.40;39.80;;;;;;5071699;28;20156;-45
2022/06/22 04:26:52;;;;;;;2.90;2.58;;;20.50;39.70;;;;;;5071367;28;20243;-44
2022/06/22 04:29:33;;;;;;;3.15;2.85;;;20.50;39.50;;;;;;5071881;28;20528;-46
2022/06/22 04:32:06;;;;;;;3.55;2.80;;;20.50;39.50;;;;;;5071967;28;20200;-44
2022/06/22 04:35:02;;;;;;;5.30;3.40;;;20.60;39.60;;;;;;5071897;28;20169;-45
2022/06/22 04:37:43;;;;;;;3.65;2.95;;;20.60;40.20;;;;;;5071540;28;20615;-45
2022/06/22 04:40:17;;;;;;;8.18;3.30;;;20.60;39.50;;;;;;5071522;28;20199;-45
2022/06/22 04:42:43;;;;;;;3.90;2.97;;;20.60;39.50;;;;;;5071719;28;20153;-45
2022/06/22 04:45:25;;;;;;;2.90;2.60;;;20.60;39.40;;;;;;5071357;28;20713;-45
2022/06/22 04:47:51;;;;;;;3.58;2.70;;;20.70;39.40;;;;;;5072919;28;20398;-45
2022/06/22 04:50:17;;;;;;;2.97;2.67;;;20.70;39.40;;;;;;5075016;28;20196;-45
2022/06/22 04:52:48;;;;;;;5.47;3.33;;;20.70;39.30;;;;;;5074933;28;20641;-45
2022/06/22 04:55:17;;;;;;;2.92;2.55;;;20.80;39.20;;;;;;5075268;28;20244;-45
2022/06/22 04:57:46;;;;;;;2.30;2.10;;;20.80;39.40;;;;;;5074606;28;20196;-46
2022/06/22 05:00:19;;;;;;;3.97;2.50;;;20.80;39.30;;;;;;5074776;28;20193;-44
2022/06/22 05:02:50;;;;;;;3.58;2.92;;;20.90;39.40;;;;;;5075131;28;20168;-45
2022/06/22 05:05:37;;;;;;;5.95;3.30;;;20.90;39.20;;;;;;5074709;28;20658;-45
2022/06/22 05:08:18;;;;;;;3.78;2.97;;;21.00;39.00;;;;;;5074710;28;20261;-45
2022/06/22 05:10:49;;;;;;;2.97;2.50;;;21.10;38.90;;;;;;5074653;28;20203;-45
2022/06/22 05:13:26;;;;;;;3.95;2.85;;;21.10;38.60;;;;;;5074692;28;20168;-45
2022/06/22 05:15:56;;;;;;;3.38;2.40;;;21.20;38.50;;;;;;5074557;28;20259;-45
2022/06/22 05:18:25;;;;;;;4.97;3.50;;;21.30;38.30;;;;;;5074404;28;20204;-45
2022/06/22 05:21:11;;;;;;;3.53;3.20;;;21.40;38.00;;;;;;5074283;28;20604;-46
2022/06/22 05:23:40;;;;;;;4.57;3.30;;;21.40;38.10;;;;;;5074738;28;20224;-46
2022/06/22 05:26:08;;;;;;;3.03;2.47;;;21.50;38.10;;;;;;5074455;28;20576;-46
2022/06/22 05:28:42;;;;;;;4.80;3.20;;;21.70;38.30;;;;;;5074580;28;20177;-45
2022/06/22 05:31:16;;;;;;;3.90;2.65;;;21.90;38.10;;;;;;5074492;28;20472;-45
2022/06/22 05:33:47;;;;;;;3.30;2.65;;;22.10;37.80;;;;;;5074275;28;20624;-45
2022/06/22 05:36:18;;;;;;;4.80;2.50;;;22.20;37.40;;;;;;5073996;28;20161;-45
2022/06/22 05:38:50;;;;;;;8.07;3.47;;;22.30;37.10;;;;;;5074116;28;20446;-45
2022/06/22 05:41:26;;;;;;;3.33;2.70;;;22.40;36.60;;;;;;5074062;28;20427;-45
2022/06/22 05:43:52;;;;;;;2.97;2.50;;;22.40;36.60;;;;;;5074140;28;20379;-46
2022/06/22 05:46:18;;;;;;;5.03;3.30;;;22.40;36.40;;;;;;5074030;28;20414;-45
2022/06/22 05:48:47;;;;;;;6.70;3.10;;;22.40;36.10;;;;;;5074159;28;20720;-45
2022/06/22 05:51:36;;;;;;;2.67;2.45;;;22.50;35.90;;;;;;5073718;28;20703;-45
2022/06/22 05:54:19;;;;;;;4.07;2.30;;;22.50;36.10;;;;;;5068072;28;20238;-45
2022/06/22 05:57:20;;;;;;;4.25;3.25;;;22.50;36.10;;;;;;5073944;28;20529;-45
2022/06/22 05:59:58;;;;;;;8.23;2.37;;;22.60;36.10;;;;;;5073340;28;20244;-46
2022/06/22 06:02:44;;;;;;;2.20;1.90;;;22.60;36.30;;;;;;5073853;28;20401;-45
2022/06/22 06:05:16;;;;;;;3.47;2.20;;;22.70;36.20;;;;;;5073910;28;20415;-45
2022/06/22 06:07:49;;;;;;;2.43;2.00;;;22.80;36.20;;;;;;5073638;28;20399;-46
2022/06/22 06:10:25;;;;;;;4.35;2.28;;;22.80;36.20;;;;;;5073455;28;20407;-45
2022/06/22 06:13:23;;;;;;;10.07;2.45;;;22.90;36.20;;;;;;5073484;28;20164;-45
2022/06/22 06:15:57;;;;;;;4.80;2.77;;;23.00;35.90;;;;;;5049883;28;20453;-45
2022/06/22 06:18:28;;;;;;;4.38;2.47;;;23.10;35.70;;;;;;5073348;28;20508;-45
2022/06/22 06:21:01;;;;;;;2.57;2.10;;;23.30;35.50;;;;;;5072987;28;20218;-45
2022/06/22 06:23:27;;;;;;;3.20;2.30;;;23.50;36.10;;;;;;5073443;28;20402;-45
2022/06/22 06:28:52;;;;;;;3.37;2.13;;;23.90;34.90;;;;;;5073467;28;20575;-46
2022/06/22 06:31:33;;;;;;;3.40;2.33;;;24.00;34.50;;;;;;5073121;28;20519;-45
2022/06/22 06:34:00;;;;;;;3.73;1.87;;;24.00;34.10;;;;;;5073379;28;20387;-46
2022/06/22 06:36:36;;;;;;;2.70;2.03;;;24.00;33.30;;;;;;5072805;28;20434;-45
2022/06/22 06:39:15;;;;;;;2.90;1.60;;;23.90;34.20;;;;;;5072920;28;20434;-45
2022/06/22 06:41:47;;;;;;;3.80;1.57;;;24.00;34.50;;;;;;5072826;28;20422;-45
2022/06/22 06:44:20;;;;;;;2.30;1.90;;;24.00;34.30;;;;;;5073046;28;20384;-45
2022/06/22 06:46:57;;;;;;;2.33;2.03;;;24.00;34.20;;;;;;5072823;28;20383;-45
2022/06/22 06:49:32;;;;;;;3.10;1.80;;;24.00;33.50;;;;;;5072913;28;20426;-45
2022/06/22 06:52:06;;;;;;;2.60;1.60;;;24.00;33.40;;;;;;5072943;28;20411;-45
2022/06/22 06:54:38;;;;;;;3.70;2.10;;;24.00;33.10;;;;;;5072920;28;20826;-46
2022/06/22 06:57:10;;;;;;;2.73;1.70;;;24.00;33.30;;;;;;5072406;28;20402;-45
2022/06/22 06:59:39;;;;;;;2.40;1.80;;;24.00;32.50;;;;;;5072612;28;20486;-45
2022/06/22 07:02:18;;;;;;;1.87;1.37;;;24.00;32.70;;;;;;5072431;28;20391;-45
2022/06/22 07:04:45;;;;;;;7.33;1.93;;;24.10;33.20;;;;;;5072582;28;20422;-46
2022/06/22 07:07:26;;;;;;;2.53;1.80;;;24.10;33.20;;;;;;5072199;28;20475;-45
2022/06/22 07:09:55;;;;;;;2.20;1.90;;;24.20;33.20;;;;;;5072366;28;20393;-46
2022/06/22 07:12:31;;;;;;;3.30;2.07;;;24.30;33.10;;;;;;5071409;28;20906;-45
2022/06/22 07:15:00;;;;;;;2.53;2.00;;;24.30;32.50;;;;;;5072366;28;20415;-46
2022/06/22 07:17:28;;;;;;;5.30;1.93;;;24.40;32.30;;;;;;5072046;28;22354;-46
2022/06/22 07:19:59;;;;;;;4.57;1.57;;;24.50;32.40;;;;;;5072306;28;20454;-46
2022/06/22 07:22:28;;;;;;;2.60;1.43;;;24.60;32.60;;;;;;5072297;28;20399;-45
2022/06/22 07:25:08;;;;;;;4.70;1.83;;;24.70;32.60;;;;;;5072164;28;20415;-45
2022/06/22 07:27:36;;;;;;;2.40;1.80;;;24.80;32.10;;;;;;5071795;28;21025;-45
2022/06/22 07:30:25;;;;;;;2.63;1.87;;;24.80;32.20;;;;;;5071960;28;20439;-45
2022/06/22 07:33:18;;;;;;;3.40;1.73;;;24.90;32.10;;;;;;5072314;28;20413;-45
2022/06/22 07:35:59;;;;;;;2.90;1.53;;;24.90;31.90;;;;;;5052274;28;20915;-45
2022/06/22 07:38:46;;;;;;;3.60;1.80;;;25.00;32.30;;;;;;5071979;28;20458;-45
2022/06/22 07:41:22;;;;;;;2.33;1.57;;;25.20;32.40;;;;;;5071871;28;20787;-46
2022/06/22 07:43:57;;;;;;;2.33;1.40;;;25.20;31.30;;;;;;5072108;28;20430;-45
2022/06/22 07:47:05;;;;;;;3.10;1.87;;;25.30;30.30;;;;;;5071787;28;20398;-46
2022/06/22 07:49:35;;;;;;;2.20;1.47;;;25.40;30.40;;;;;;5071852;28;20446;-46
2022/06/22 07:52:07;;;;;;;2.63;1.40;;;25.40;30.60;;;;;;5071878;28;20899;-46
2022/06/22 07:54:55;;;;;;;1.70;1.10;;;25.60;29.70;;;;;;5071984;28;20402;-46
2022/06/22 07:57:43;;;;;;;5.00;2.27;;;25.70;28.70;;;;;;5071910;28;20383;-45
2022/06/22 08:00:19;;;;;;;3.20;2.00;;;25.90;30.20;;;;;;5071958;28;20419;-46
2022/06/22 08:03:19;;;;;;;3.97;1.47;;;26.00;29.50;;;;;;5071805;28;20407;-45
2022/06/22 08:05:50;;;;;;;3.10;1.60;;;26.20;29.70;;;;;;5062338;28;20986;-46
2022/06/22 08:08:22;;;;;;;1.80;1.30;;;26.40;29.00;;;;;;5071848;28;20902;-44
2022/06/22 08:10:58;;;;;;;2.63;1.80;;;26.60;28.80;;;;;;5071758;28;20433;-44
2022/06/22 08:13:27;;;;;;;2.20;1.50;;;26.80;29.00;;;;;;5071771;28;20484;-45
2022/06/22 08:16:00;;;;;;;2.57;1.27;;;27.00;29.00;;;;;;5071746;28;20409;-44
2022/06/22 08:18:28;;;;;;;4.50;1.37;;;27.20;28.60;;;;;;5070449;22;20557;-45
2022/06/22 08:20:57;;;;;;;2.10;1.40;;;27.20;24.80;;;;;;5071613;28;20514;-45
2022/06/22 08:23:34;;;;;;;4.50;1.90;;;27.30;26.90;;;;;;5073970;28;20885;-45
2022/06/22 08:26:03;;;;;;;2.53;1.90;;;27.40;26.10;;;;;;5075315;28;20947;-46
2022/06/22 08:28:36;;;;;;;3.30;2.03;;;27.50;27.40;;;;;;5075385;28;20423;-45
2022/06/22 08:31:03;;;;;;;1.80;1.27;;;27.50;26.80;;;;;;5075474;28;20383;-46
2022/06/22 08:33:37;;;;;;;2.10;1.57;;;27.60;26.30;;;;;;5075406;28;20399;-46
2022/06/22 08:36:28;;;;;;;5.20;1.90;;;27.70;26.20;;;;;;5075411;28;20452;-46
2022/06/22 08:39:06;;;;;;;3.10;1.87;;;27.80;26.30;;;;;;5075100;28;20557;-46
2022/06/22 08:41:38;;;;;;;2.10;1.30;;;28.00;27.20;;;;;;5075292;28;20893;-46
2022/06/22 08:44:16;;;;;;;3.83;2.00;;;28.00;26.30;;;;;;5075001;28;20434;-46
2022/06/22 08:47:08;;;;;;;5.30;1.67;;;28.10;26.70;;;;;;5074847;28;20394;-46
2022/06/22 08:50:03;;;;;;;3.37;1.57;;;28.20;26.00;;;;;;5075160;28;20399;-45
2022/06/22 08:52:54;;;;;;;2.87;1.40;;;28.30;27.00;;;;;;5075084;28;20482;-45
2022/06/22 08:55:56;;;;;;;2.47;1.50;;;28.50;26.50;;;;;;5074996;28;20410;-45
2022/06/22 08:58:39;;;;;;;2.60;1.80;;;28.60;24.30;;;;;;5074767;28;20855;-46
2022/06/22 09:01:22;;;;;;;3.10;1.70;;;28.60;25.40;;;;;;5074924;28;20387;-45
2022/06/22 09:03:54;;;;;;;2.33;1.30;;;28.60;24.40;;;;;;5074776;28;20409;-46
2022/06/22 09:06:42;;;;;;;3.80;1.60;;;28.60;25.20;;;;;;5074875;28;20459;-46
2022/06/22 09:09:16;;;;;;;2.40;1.53;;;28.80;25.20;;;;;;5074600;28;20427;-46
2022/06/22 09:12:26;;;;;;;8.57;1.50;;;28.80;23.40;;;;;;5074743;28;20390;-46
2022/06/22 09:15:31;;;;;;;3.70;1.57;;;28.90;23.20;;;;;;5074659;28;20478;-46
2022/06/22 09:18:16;;;;;;;5.80;2.07;;;29.00;24.50;;;;;;5066513;28;20477;-46
2022/06/22 09:21:02;;;;;;;2.17;1.63;;;29.10;22.80;;;;;;5074607;28;20908;-46
2022/06/22 09:23:53;;;;;;;2.03;1.40;;;29.20;24.60;;;;;;5074590;28;20917;-45
2022/06/22 09:26:51;;;;;;;2.27;1.57;;;29.30;24.00;;;;;;5074299;28;20406;-45
2022/06/22 09:29:38;;;;;;;2.20;1.70;;;29.40;23.50;;;;;;5074419;28;20983;-46
2022/06/22 09:32:15;;;;;;;2.53;1.80;;;29.50;23.70;;;;;;5074227;28;20402;-45
2022/06/22 09:35:32;;;;;;;2.50;1.43;;;29.40;23.30;;;;;;5073225;28;20432;-46
2022/06/22 09:38:30;;;;;;;1.70;1.17;;;29.50;24.00;;;;;;5071953;28;20541;-46
2022/06/22 09:41:21;;;;;;;2.47;1.83;;;29.60;23.10;;;;;;5068566;28;20411;-46
2022/06/22 09:44:26;;;;;;;2.83;1.70;;;29.50;23.10;;;;;;5074125;28;20440;-46
2022/06/22 09:47:23;;;;;;;2.63;1.63;;;29.60;23.10;;;;;;5073978;28;20459;-45
2022/06/22 09:50:07;;;;;;;3.90;1.80;;;29.60;23.80;;;;;;5073977;28;20474;-45
2022/06/22 09:52:43;;;;;;;1.80;1.33;;;29.60;22.90;;;;;;5073982;28;20528;-46
2022/06/22 09:58:44;;;;;;;2.57;1.60;;;29.60;23.00;;;;;;5073694;28;20989;-46
2022/06/22 10:01:38;;;;;;;5.90;1.70;;;29.70;23.40;;;;;;5073767;28;20505;-46
2022/06/22 10:04:21;;;;;;;3.00;1.50;;;29.80;23.00;;;;;;5073905;28;20395;-46
2022/06/22 10:06:47;;;;;;;1.90;1.40;;;29.80;21.60;;;;;;5073367;28;20489;-46
2022/06/22 10:09:35;;;;;;;2.67;1.83;;;29.90;20.00;;;;;;5073559;28;20525;-46
2022/06/22 10:12:28;;;;;;;3.47;1.47;;;30.00;22.10;;;;;;5073596;28;20176;-45
2022/06/22 10:15:09;;;;;;;3.10;1.53;;;30.20;23.00;;;;;;5073513;28;20392;-45
2022/06/22 10:18:23;;;;;;;2.20;1.70;;;30.30;22.90;;;;;;5073114;28;20467;-46
2022/06/22 10:21:14;;;;;;;3.60;1.20;;;30.50;22.10;;;;;;5064056;28;20421;-46
2022/06/22 10:23:59;;;;;;;2.10;1.63;;;30.60;21.70;;;;;;5073462;28;20459;-46
2022/06/22 10:26:43;;;;;;;3.60;1.23;;;30.70;20.80;;;;;;5072993;28;20410;-45
2022/06/22 10:29:33;;;;;;;4.23;1.33;;;30.70;21.10;;;;;;5073083;28;20431;-47
2022/06/22 10:32:08;;;;;;;2.20;1.23;;;30.80;20.70;;;;;;5073228;28;20403;-46
2022/06/22 10:34:41;;;;;;;2.07;1.37;;;30.90;21.50;;;;;;5073048;28;20414;-47
2022/06/22 10:37:09;;;;;;;3.00;1.73;;;31.00;21.50;;;;;;5072807;28;20898;-46
2022/06/22 10:39:45;;;;;;;2.67;1.50;;;31.10;21.90;;;;;;5073100;28;20455;-46
2022/06/22 10:45:32;;;;;;;3.37;1.60;;;31.30;20.00;;;;;;5072695;28;20435;-47
2022/06/22 10:48:35;;;;;;;2.20;1.20;;;31.30;20.20;;;;;;5072761;28;20774;-47
2022/06/22 10:51:22;;;;;;;2.10;1.60;;;31.30;17.90;;;;;;5072841;28;20901;-47
2022/06/22 10:54:00;;;;;;;2.90;1.37;;;31.30;18.70;;;;;;5072775;28;21016;-46
2022/06/22 10:56:54;;;;;;;2.77;1.30;;;31.30;18.30;;;;;;5072756;28;20806;-46
2022/06/22 10:59:38;;;;;;;2.37;1.47;;;31.40;19.80;;;;;;5072579;28;20461;-46
2022/06/22 11:02:35;;;;;;;2.10;1.23;;;31.60;19.60;;;;;;5072585;28;20829;-46
2022/06/22 11:05:53;;;;;;;4.90;1.67;;;31.70;19.70;;;;;;5072620;28;20391;-46
2022/06/22 11:08:52;;;;;;;3.00;1.50;;;32.00;20.00;;;;;;5063843;28;20947;-46
2022/06/22 11:11:39;;;;;;;1.80;1.10;;;32.20;19.10;;;;;;5072431;28;20810;-46
2022/06/22 11:14:37;;;;;;;2.73;1.90;;;32.30;18.80;;;;;;5072304;28;20410;-46
2022/06/22 11:17:39;;;;;;;2.20;1.40;;;32.20;18.20;;;;;;5072144;28;20388;-46
2022/06/22 11:20:23;;;;;;;1.93;1.10;;;32.00;18.80;;;;;;5072422;28;20488;-45
2022/06/22 11:22:54;;;;;;;2.63;1.83;;;31.80;19.00;;;;;;5072516;28;20403;-45
2022/06/22 11:32:26;;;;;;;2.20;1.40;;;31.50;19.60;;;;;;5072491;28;20386;-46
2022/06/22 11:35:18;;;;;;;2.30;1.40;;;31.40;18.70;;;;;;5072094;28;20900;-46
2022/06/22 11:37:52;;;;;;;5.93;1.30;;;31.50;19.70;;;;;;5055640;28;20548;-45
2022/06/22 11:40:37;;;;;;;2.00;1.40;;;31.70;18.90;;;;;;5071986;28;20419;-45
2022/06/22 11:43:33;;;;;;;2.50;1.70;;;31.80;18.70;;;;;;5072409;28;20398;-45
2022/06/22 11:46:13;;;;;;;2.00;1.50;;;31.90;17.40;;;;;;5072113;28;20401;-48
2022/06/22 11:49:00;;;;;;;4.57;1.70;;;31.90;18.10;;;;;;5072224;28;20418;-45
2022/06/22 11:52:03;;;;;;;2.10;1.70;;;32.00;18.60;;;;;;5071957;28;20947;-46
2022/06/22 11:54:47;;;;;;;2.17;1.50;;;32.20;18.20;;;;;;5072067;28;20402;-47
2022/06/22 11:57:31;;;;;;;2.47;1.90;;;32.20;18.70;;;;;;5072111;28;20787;-46
2022/06/22 12:00:08;;;;;;;2.73;1.60;;;32.30;18.00;;;;;;5076025;28;20414;-47
2022/06/22 12:02:40;;;;;;;2.83;1.70;;;32.30;17.70;;;;;;5076051;28;20437;-46
2022/06/22 12:05:26;;;;;;;2.90;1.67;;;32.30;18.20;;;;;;5076165;28;20823;-46
2022/06/22 12:08:21;;;;;;;2.40;1.80;;;32.40;18.50;;;;;;5075927;28;20418;-46
2022/06/22 12:11:24;;;;;;;2.13;1.30;;;32.40;18.50;;;;;;5075863;28;20402;-46
2022/06/22 12:17:32;;;;;;;1.87;1.23;;;32.00;18.20;;;;;;5075463;28;20398;-46
2022/06/22 12:20:20;;;;;;;2.20;1.60;;;32.00;18.90;;;;;;5075995;28;20452;-46
2022/06/22 12:23:16;;;;;;;2.20;1.30;;;32.00;18.80;;;;;;5075907;28;20398;-45
2022/06/22 12:26:19;;;;;;;2.47;1.53;;;32.10;19.20;;;;;;5075625;28;20402;-48
2022/06/22 12:29:28;;;;;;;2.00;1.30;;;32.30;19.10;;;;;;5075495;28;20438;-45
2022/06/22 12:32:23;;;;;;;3.70;2.00;;;32.70;19.30;;;;;;5075505;28;20395;-44
2022/06/22 12:35:16;;;;;;;2.57;1.70;;;32.90;19.20;;;;;;5071072;28;20449;-45
2022/06/22 12:37:57;;;;;;;1.90;1.30;;;33.30;18.70;;;;;;5074834;28;20544;-45
2022/06/22 12:40:49;;;;;;;2.00;1.70;;;33.60;17.70;;;;;;5075325;28;20917;-46
2022/06/22 12:43:36;;;;;;;3.20;1.60;;;33.80;17.50;;;;;;5075134;28;20890;-46
2022/06/22 12:46:31;;;;;;;3.53;2.17;;;33.90;18.30;;;;;;5075002;28;20406;-46
2022/06/22 12:49:24;;;;;;;2.07;1.30;;;34.10;18.10;;;;;;5075156;28;20433;-45
2022/06/22 12:52:03;;;;;;;3.00;2.10;;;34.30;17.80;;;;;;5075133;28;20482;-47
2022/06/22 12:54:37;;;;;;;2.40;1.50;;;34.50;16.10;;;;;;5075258;28;20402;-46
2022/06/22 12:57:12;;;;;;;2.00;1.57;;;34.80;17.70;;;;;;5074806;28;20447;-46
2022/06/22 12:59:51;;;;;;;2.03;1.40;;;34.90;16.90;;;;;;5075045;28;20530;-46
2022/06/22 13:02:20;;;;;;;2.00;1.33;;;34.90;17.50;;;;;;5074846;28;20402;-46
2022/06/22 13:04:50;;;;;;;1.70;1.17;;;35.00;18.10;;;;;;5075035;28;20397;-48
2022/06/22 13:07:19;;;;;;;2.17;1.73;;;35.10;18.30;;;;;;5074411;28;20583;-48
2022/06/22 13:09:46;;;;;;;2.57;1.43;;;35.10;16.00;;;;;;5074984;28;20413;-48
2022/06/22 13:12:28;;;;;;;2.90;1.50;;;35.00;17.30;;;;;;5074783;28;20407;-45
2022/06/22 13:15:21;;;;;;;3.40;1.57;;;35.10;17.70;;;;;;5074626;28;20434;-45
2022/06/22 13:18:17;;;;;;;2.57;1.50;;;35.00;16.30;;;;;;5074171;28;20467;-45
2022/06/22 13:21:04;;;;;;;3.23;1.73;;;34.90;16.80;;;;;;5074593;28;20895;-46
2022/06/22 13:23:50;;;;;;;2.13;1.40;;;34.90;17.40;;;;;;5074823;28;20411;-45
2022/06/22 13:26:39;;;;;;;2.43;1.30;;;35.00;17.20;;;;;;5074112;28;20395;-45
2022/06/22 13:29:32;;;;;;;1.77;1.17;;;35.00;17.20;;;;;;5074165;28;20428;-44
2022/06/22 13:32:05;;;;;;;2.17;1.57;;;34.80;17.00;;;;;;5074673;28;20403;-45
2022/06/22 13:34:52;;;;;;;1.90;1.40;;;34.60;17.40;;;;;;5074357;28;20925;-45
2022/06/22 13:37:42;;;;;;;2.23;1.50;;;34.40;17.60;;;;;;5073967;28;20424;-44
2022/06/22 13:40:33;;;;;;;2.30;1.40;;;34.20;17.40;;;;;;5074519;28;20415;-45
2022/06/22 13:43:14;;;;;;;4.63;1.30;;;34.00;18.10;;;;;;5074067;28;20457;-47
2022/06/22 13:46:12;;;;;;;3.40;2.13;;;33.90;18.00;;;;;;5073945;28;20439;-45
2022/06/22 13:48:45;;;;;;;3.00;1.40;;;33.80;18.10;;;;;;5065777;28;20435;-45
2022/06/22 13:51:51;;;;;;;4.73;1.70;;;33.60;18.30;;;;;;5073846;28;20399;-48
2022/06/22 13:54:45;;;;;;;2.63;1.63;;;33.60;18.60;;;;;;5073914;28;20401;-45
2022/06/22 13:57:43;;;;;;;2.30;1.40;;;33.70;18.80;;;;;;5073932;28;20448;-44
2022/06/22 14:00:23;;;;;;;2.77;1.97;;;33.80;18.80;;;;;;5052430;28;20419;-45
2022/06/22 14:03:23;;;;;;;2.17;1.50;;;33.90;17.80;;;;;;5074018;28;20418;-45
2022/06/22 14:05:53;;;;;;;2.70;1.73;;;34.00;16.80;;;;;;5073647;28;20402;-45
2022/06/22 14:08:30;;;;;;;1.93;1.23;;;34.00;18.40;;;;;;5073647;28;20789;-45
2022/06/22 14:11:02;;;;;;;2.40;1.90;;;34.20;18.60;;;;;;5073686;28;20497;-46
2022/06/22 14:14:15;;;;;;;2.30;1.60;;;34.30;18.60;;;;;;5073578;28;20399;-46
2022/06/22 14:16:52;;;;;;;2.10;1.30;;;34.50;18.50;;;;;;5069251;28;20444;-46
2022/06/22 14:19:35;;;;;;;2.13;1.30;;;34.70;18.40;;;;;;5073703;28;20465;-47
2022/06/22 14:22:05;;;;;;;2.57;1.70;;;34.80;18.40;;;;;;5073167;28;20830;-46